sensor_id;sensor_type;location;lat;lon;timestamp;temperature;humidity
11107;DHT22;5607;48.302;14.294;2023-02-15T00:01:07;1.60;99.90
11107;DHT22;5607;48.302;14.294;2023-02-15T00:03:55;1.60;99.90
11107;DHT22;5607;48.302;14.294;2023-02-15T00:06:42;1.50;99.90
11107;DHT22;5607;48.302;14.294;2023-02-15T00:09:29;1.50;99.90
11107;DHT22;5607;48.302;14.294;2023-02-15T00:12:16;1.40;99.90
11107;DHT22;5607;48.302;14.294;2023-02-15T00:15:03;1.40;99.90
11107;DHT22;5607;48.302;14.294;2023-02-15T00:17:49;1.30;99.90
11107;DHT22;5607;48.302;14.294;2023-02-15T00:20:36;1.30;99.90
11107;DHT22;5607;48.302;14.294;2023-02-15T00:23:23;1.30;99.90
11107;DHT22;5607;48.302;14.294;2023-02-15T00:26:10;1.30;99.90
11107;DHT22;5607;48.302;14.294;2023-02-15T00:28:58;1.30;99.90
11107;DHT22;5607;48.302;14.294;2023-02-15T00:31:45;1.20;99.90
11107;DHT22;5607;48.302;14.294;2023-02-15T00:34:31;1.30;99.90
11107;DHT22;5607;48.302;14.294;2023-02-15T00:37:18;1.40;99.90
11107;DHT22;5607;48.302;14.294;2023-02-15T00:40:05;1.40;99.90
11107;DHT22;5607;48.302;14.294;2023-02-15T00:42:52;1.50;99.90
11107;DHT22;5607;48.302;14.294;2023-02-15T00:45:39;1.60;99.90
11107;DHT22;5607;48.302;14.294;2023-02-15T00:48:25;1.60;99.90
11107;DHT22;5607;48.302;14.294;2023-02-15T00:51:12;1.70;99.90
11107;DHT22;5607;48.302;14.294;2023-02-15T00:54:01;1.60;99.90
11107;DHT22;5607;48.302;14.294;2023-02-15T00:56:47;1.60;99.90
11107;DHT22;5607;48.302;14.294;2023-02-15T00:59:34;1.60;99.90
11107;DHT22;5607;48.302;14.294;2023-02-15T01:02:20;1.70;99.90
11107;DHT22;5607;48.302;14.294;2023-02-15T01:05:07;1.60;99.90
11107;DHT22;5607;48.302;14.294;2023-02-15T01:07:53;1.70;99.90
11107;DHT22;5607;48.302;14.294;2023-02-15T01:10:40;1.70;99.90
11107;DHT22;5607;48.302;14.294;2023-02-15T01:13:27;1.70;99.90
11107;DHT22;5607;48.302;14.294;2023-02-15T01:16:13;1.80;99.90
11107;DHT22;5607;48.302;14.294;2023-02-15T01:19:00;1.90;99.90
11107;DHT22;5607;48.302;14.294;2023-02-15T01:21:48;1.90;99.90
11107;DHT22;5607;48.302;14.294;2023-02-15T01:24:35;2.00;99.90
11107;DHT22;5607;48.302;14.294;2023-02-15T01:27:21;2.00;99.90
11107;DHT22;5607;48.302;14.294;2023-02-15T01:30:08;2.10;99.90
11107;DHT22;5607;48.302;14.294;2023-02-15T01:32:55;2.10;99.90
11107;DHT22;5607;48.302;14.294;2023-02-15T01:35:42;2.20;99.90
11107;DHT22;5607;48.302;14.294;2023-02-15T01:38:28;2.20;99.90
11107;DHT22;5607;48.302;14.294;2023-02-15T01:41:15;2.20;99.90
11107;DHT22;5607;48.302;14.294;2023-02-15T01:47:41;2.20;99.90
11107;DHT22;5607;48.302;14.294;2023-02-15T01:50:37;2.10;99.90
11107;DHT22;5607;48.302;14.294;2023-02-15T01:53:41;2.10;99.90
11107;DHT22;5607;48.302;14.294;2023-02-15T01:56:34;2.00;99.90
11107;DHT22;5607;48.302;14.294;2023-02-15T01:59:23;2.00;99.90
11107;DHT22;5607;48.302;14.294;2023-02-15T02:02:11;2.10;99.90
11107;DHT22;5607;48.302;14.294;2023-02-15T02:05:01;2.10;99.90
11107;DHT22;5607;48.302;14.294;2023-02-15T02:07:53;2.10;99.90
11107;DHT22;5607;48.302;14.294;2023-02-15T02:10:42;2.10;99.90
11107;DHT22;5607;48.302;14.294;2023-02-15T02:13:28;2.10;99.90
11107;DHT22;5607;48.302;14.294;2023-02-15T02:22:31;2.10;99.90
11107;DHT22;5607;48.302;14.294;2023-02-15T02:38:28;1.90;99.90
11107;DHT22;5607;48.302;14.294;2023-02-15T02:44:46;1.90;99.90
11107;DHT22;5607;48.302;14.294;2023-02-15T02:47:37;2.00;99.90
11107;DHT22;5607;48.302;14.294;2023-02-15T02:50:45;2.00;99.90
11107;DHT22;5607;48.302;14.294;2023-02-15T02:53:32;1.90;99.90
11107;DHT22;5607;48.302;14.294;2023-02-15T02:59:13;2.00;99.90
11107;DHT22;5607;48.302;14.294;2023-02-15T03:02:07;2.00;99.90
11107;DHT22;5607;48.302;14.294;2023-02-15T03:05:00;1.90;99.90
11107;DHT22;5607;48.302;14.294;2023-02-15T03:07:50;2.00;99.90
11107;DHT22;5607;48.302;14.294;2023-02-15T03:10:39;2.10;99.90
11107;DHT22;5607;48.302;14.294;2023-02-15T03:13:27;2.10;99.90
11107;DHT22;5607;48.302;14.294;2023-02-15T03:16:15;2.10;99.90
11107;DHT22;5607;48.302;14.294;2023-02-15T03:19:17;2.20;99.90
11107;DHT22;5607;48.302;14.294;2023-02-15T03:22:14;2.20;99.90
11107;DHT22;5607;48.302;14.294;2023-02-15T03:28:05;2.10;99.90
11107;DHT22;5607;48.302;14.294;2023-02-15T03:30:55;2.20;99.90
11107;DHT22;5607;48.302;14.294;2023-02-15T03:33:54;2.10;99.90
11107;DHT22;5607;48.302;14.294;2023-02-15T03:36:45;2.20;99.90
11107;DHT22;5607;48.302;14.294;2023-02-15T03:39:47;2.10;99.90
11107;DHT22;5607;48.302;14.294;2023-02-15T03:42:41;2.20;99.90
11107;DHT22;5607;48.302;14.294;2023-02-15T03:45:30;2.20;99.90
11107;DHT22;5607;48.302;14.294;2023-02-15T03:48:34;2.20;99.90
11107;DHT22;5607;48.302;14.294;2023-02-15T03:51:26;2.20;99.90
11107;DHT22;5607;48.302;14.294;2023-02-15T03:54:25;2.20;99.90
11107;DHT22;5607;48.302;14.294;2023-02-15T03:57:29;2.20;99.90
11107;DHT22;5607;48.302;14.294;2023-02-15T04:00:35;2.20;99.90
11107;DHT22;5607;48.302;14.294;2023-02-15T04:03:55;2.20;99.90
11107;DHT22;5607;48.302;14.294;2023-02-15T04:06:49;2.10;99.90
11107;DHT22;5607;48.302;14.294;2023-02-15T04:09:35;2.10;99.90
11107;DHT22;5607;48.302;14.294;2023-02-15T04:12:41;2.10;99.90
11107;DHT22;5607;48.302;14.294;2023-02-15T04:15:28;2.20;99.90
11107;DHT22;5607;48.302;14.294;2023-02-15T04:18:34;2.30;99.90
11107;DHT22;5607;48.302;14.294;2023-02-15T04:21:41;2.30;99.90
11107;DHT22;5607;48.302;14.294;2023-02-15T04:24:46;2.30;99.90
11107;DHT22;5607;48.302;14.294;2023-02-15T04:27:52;2.30;99.90
11107;DHT22;5607;48.302;14.294;2023-02-15T04:30:40;2.40;99.90
11107;DHT22;5607;48.302;14.294;2023-02-15T04:33:26;2.30;99.90
11107;DHT22;5607;48.302;14.294;2023-02-15T04:36:13;2.30;99.90
11107;DHT22;5607;48.302;14.294;2023-02-15T04:38:59;2.30;99.90
11107;DHT22;5607;48.302;14.294;2023-02-15T04:41:46;2.40;99.90
11107;DHT22;5607;48.302;14.294;2023-02-15T04:44:33;2.30;99.90
11107;DHT22;5607;48.302;14.294;2023-02-15T04:47:20;2.40;99.90
11107;DHT22;5607;48.302;14.294;2023-02-15T04:50:07;2.20;99.90
11107;DHT22;5607;48.302;14.294;2023-02-15T04:52:54;2.20;99.90
11107;DHT22;5607;48.302;14.294;2023-02-15T04:55:40;2.20;99.90
11107;DHT22;5607;48.302;14.294;2023-02-15T04:58:27;2.20;99.90
11107;DHT22;5607;48.302;14.294;2023-02-15T05:01:14;2.20;99.90
11107;DHT22;5607;48.302;14.294;2023-02-15T05:04:00;2.20;99.90
11107;DHT22;5607;48.302;14.294;2023-02-15T05:06:47;2.10;99.90
11107;DHT22;5607;48.302;14.294;2023-02-15T05:09:34;2.10;99.90
11107;DHT22;5607;48.302;14.294;2023-02-15T05:12:20;2.20;99.90
11107;DHT22;5607;48.302;14.294;2023-02-15T05:15:07;2.20;99.90
11107;DHT22;5607;48.302;14.294;2023-02-15T05:17:54;2.20;99.90
11107;DHT22;5607;48.302;14.294;2023-02-15T05:20:40;2.30;99.90
11107;DHT22;5607;48.302;14.294;2023-02-15T05:23:27;2.40;99.90
11107;DHT22;5607;48.302;14.294;2023-02-15T05:26:16;2.40;99.90
11107;DHT22;5607;48.302;14.294;2023-02-15T05:29:24;2.60;99.90
11107;DHT22;5607;48.302;14.294;2023-02-15T05:32:12;2.60;99.90
11107;DHT22;5607;48.302;14.294;2023-02-15T05:34:59;2.60;99.90
11107;DHT22;5607;48.302;14.294;2023-02-15T05:37:46;2.60;99.90
11107;DHT22;5607;48.302;14.294;2023-02-15T05:40:32;2.60;99.90
11107;DHT22;5607;48.302;14.294;2023-02-15T05:43:19;2.60;99.90
11107;DHT22;5607;48.302;14.294;2023-02-15T05:46:06;2.60;99.90
11107;DHT22;5607;48.302;14.294;2023-02-15T05:48:53;2.60;99.90
11107;DHT22;5607;48.302;14.294;2023-02-15T05:51:40;2.60;99.90
11107;DHT22;5607;48.302;14.294;2023-02-15T05:54:26;2.60;99.90
11107;DHT22;5607;48.302;14.294;2023-02-15T05:57:13;2.50;99.90
11107;DHT22;5607;48.302;14.294;2023-02-15T06:00:00;2.40;99.90
11107;DHT22;5607;48.302;14.294;2023-02-15T06:02:47;2.40;99.90
11107;DHT22;5607;48.302;14.294;2023-02-15T06:05:33;2.40;99.90
11107;DHT22;5607;48.302;14.294;2023-02-15T06:08:20;2.40;99.90
11107;DHT22;5607;48.302;14.294;2023-02-15T06:11:06;2.40;99.90
11107;DHT22;5607;48.302;14.294;2023-02-15T06:13:53;2.50;99.90
11107;DHT22;5607;48.302;14.294;2023-02-15T06:16:40;2.30;99.90
11107;DHT22;5607;48.302;14.294;2023-02-15T06:19:26;2.40;99.90
11107;DHT22;5607;48.302;14.294;2023-02-15T06:22:13;2.30;99.90
11107;DHT22;5607;48.302;14.294;2023-02-15T06:25:02;2.40;99.90
11107;DHT22;5607;48.302;14.294;2023-02-15T06:27:49;2.40;99.90
11107;DHT22;5607;48.302;14.294;2023-02-15T06:30:36;2.40;99.90
11107;DHT22;5607;48.302;14.294;2023-02-15T06:33:23;2.40;85.80
11107;DHT22;5607;48.302;14.294;2023-02-15T06:36:09;2.30;95.10
11107;DHT22;5607;48.302;14.294;2023-02-15T06:38:56;2.40;91.20
11107;DHT22;5607;48.302;14.294;2023-02-15T06:41:43;2.30;78.10
11107;DHT22;5607;48.302;14.294;2023-02-15T06:44:29;2.30;81.70
11107;DHT22;5607;48.302;14.294;2023-02-15T06:47:16;2.30;97.30
11107;DHT22;5607;48.302;14.294;2023-02-15T06:50:04;2.30;99.20
11107;DHT22;5607;48.302;14.294;2023-02-15T06:52:55;2.30;92.50
11107;DHT22;5607;48.302;14.294;2023-02-15T06:55:42;2.30;80.40
11107;DHT22;5607;48.302;14.294;2023-02-15T06:58:29;2.30;74.60
11107;DHT22;5607;48.302;14.294;2023-02-15T07:01:16;2.30;99.90
11107;DHT22;5607;48.302;14.294;2023-02-15T07:04:02;2.50;99.90
11107;DHT22;5607;48.302;14.294;2023-02-15T07:06:49;2.60;91.60
11107;DHT22;5607;48.302;14.294;2023-02-15T07:09:36;2.60;60.00
11107;DHT22;5607;48.302;14.294;2023-02-15T07:12:22;2.50;41.10
11107;DHT22;5607;48.302;14.294;2023-02-15T07:15:27;2.50;54.30
11107;DHT22;5607;48.302;14.294;2023-02-15T07:18:14;2.50;52.30
11107;DHT22;5607;48.302;14.294;2023-02-15T07:21:00;2.50;50.10
11107;DHT22;5607;48.302;14.294;2023-02-15T07:23:47;2.40;57.60
11107;DHT22;5607;48.302;14.294;2023-02-15T07:26:33;2.40;46.60
11107;DHT22;5607;48.302;14.294;2023-02-15T07:29:21;2.40;49.30
11107;DHT22;5607;48.302;14.294;2023-02-15T07:32:09;2.50;44.30
11107;DHT22;5607;48.302;14.294;2023-02-15T07:34:55;2.50;44.30
11107;DHT22;5607;48.302;14.294;2023-02-15T07:37:42;2.40;45.50
11107;DHT22;5607;48.302;14.294;2023-02-15T07:40:28;2.40;49.30
11107;DHT22;5607;48.302;14.294;2023-02-15T07:43:15;2.50;46.10
11107;DHT22;5607;48.302;14.294;2023-02-15T07:46:06;2.50;30.80
11107;DHT22;5607;48.302;14.294;2023-02-15T07:48:55;2.40;34.10
11107;DHT22;5607;48.302;14.294;2023-02-15T07:51:41;2.40;44.50
11107;DHT22;5607;48.302;14.294;2023-02-15T07:54:28;2.50;41.50
11107;DHT22;5607;48.302;14.294;2023-02-15T07:57:14;2.60;25.70
11107;DHT22;5607;48.302;14.294;2023-02-15T08:00:01;2.50;16.60
11107;DHT22;5607;48.302;14.294;2023-02-15T08:02:48;2.50;15.60
11107;DHT22;5607;48.302;14.294;2023-02-15T08:05:57;2.60;20.60
11107;DHT22;5607;48.302;14.294;2023-02-15T08:08:44;2.70;4.70
11107;DHT22;5607;48.302;14.294;2023-02-15T08:11:32;2.50;5.20
11107;DHT22;5607;48.302;14.294;2023-02-15T08:14:23;2.40;9.80
11107;DHT22;5607;48.302;14.294;2023-02-15T08:17:10;2.30;17.40
11107;DHT22;5607;48.302;14.294;2023-02-15T08:19:56;2.50;28.00
11107;DHT22;5607;48.302;14.294;2023-02-15T08:22:43;2.50;19.30
11107;DHT22;5607;48.302;14.294;2023-02-15T08:25:29;2.60;32.50
11107;DHT22;5607;48.302;14.294;2023-02-15T08:28:16;2.80;21.60
11107;DHT22;5607;48.302;14.294;2023-02-15T08:31:06;2.90;11.80
11107;DHT22;5607;48.302;14.294;2023-02-15T08:33:55;2.90;1.00
11107;DHT22;5607;48.302;14.294;2023-02-15T08:36:42;2.90;4.80
11107;DHT22;5607;48.302;14.294;2023-02-15T08:39:31;2.80;14.50
11107;DHT22;5607;48.302;14.294;2023-02-15T08:42:17;2.90;15.90
11107;DHT22;5607;48.302;14.294;2023-02-15T08:45:06;3.10;4.70
11107;DHT22;5607;48.302;14.294;2023-02-15T08:47:53;3.10;4.10
11107;DHT22;5607;48.302;14.294;2023-02-15T08:50:39;3.20;2.10
11107;DHT22;5607;48.302;14.294;2023-02-15T08:53:26;3.30;1.00
11107;DHT22;5607;48.302;14.294;2023-02-15T08:56:12;3.40;1.00
11107;DHT22;5607;48.302;14.294;2023-02-15T08:58:59;3.50;1.00
11107;DHT22;5607;48.302;14.294;2023-02-15T09:01:48;3.60;1.00
11107;DHT22;5607;48.302;14.294;2023-02-15T09:04:36;3.60;1.00
11107;DHT22;5607;48.302;14.294;2023-02-15T09:07:22;3.50;1.00
11107;DHT22;5607;48.302;14.294;2023-02-15T09:10:09;3.50;1.00
11107;DHT22;5607;48.302;14.294;2023-02-15T09:12:55;3.60;1.00
11107;DHT22;5607;48.302;14.294;2023-02-15T09:15:42;3.70;1.00
11107;DHT22;5607;48.302;14.294;2023-02-15T09:18:30;3.70;1.00
11107;DHT22;5607;48.302;14.294;2023-02-15T09:21:20;3.70;1.00
11107;DHT22;5607;48.302;14.294;2023-02-15T09:24:11;3.80;1.00
11107;DHT22;5607;48.302;14.294;2023-02-15T09:26:59;3.90;1.00
11107;DHT22;5607;48.302;14.294;2023-02-15T09:29:45;3.90;1.00
11107;DHT22;5607;48.302;14.294;2023-02-15T09:32:32;3.90;1.00
11107;DHT22;5607;48.302;14.294;2023-02-15T09:35:18;3.90;1.00
11107;DHT22;5607;48.302;14.294;2023-02-15T09:38:05;4.00;1.00
11107;DHT22;5607;48.302;14.294;2023-02-15T09:41:02;3.90;1.00
11107;DHT22;5607;48.302;14.294;2023-02-15T09:53:55;3.90;1.00
11107;DHT22;5607;48.302;14.294;2023-02-15T09:56:51;3.90;1.00
11107;DHT22;5607;48.302;14.294;2023-02-15T10:12:32;3.90;1.00
11107;DHT22;5607;48.302;14.294;2023-02-15T10:27:35;4.30;1.00
11107;DHT22;5607;48.302;14.294;2023-02-15T10:36:25;4.60;1.00
11107;DHT22;5607;48.302;14.294;2023-02-15T10:42:21;4.00;1.00
11107;DHT22;5607;48.302;14.294;2023-02-15T10:46:06;4.20;1.00
11107;DHT22;5607;48.302;14.294;2023-02-15T10:48:41;4.30;1.00
11107;DHT22;5607;48.302;14.294;2023-02-15T11:06:19;4.70;1.00
11107;DHT22;5607;48.302;14.294;2023-02-15T11:09:10;4.70;1.00
11107;DHT22;5607;48.302;14.294;2023-02-15T11:11:59;4.60;1.00
11107;DHT22;5607;48.302;14.294;2023-02-15T11:14:52;4.50;1.00
11107;DHT22;5607;48.302;14.294;2023-02-15T11:18:06;4.40;1.00
11107;DHT22;5607;48.302;14.294;2023-02-15T11:24:10;4.40;1.00
11107;DHT22;5607;48.302;14.294;2023-02-15T11:30:05;4.10;1.00
11107;DHT22;5607;48.302;14.294;2023-02-15T11:32:59;4.00;1.00
11107;DHT22;5607;48.302;14.294;2023-02-15T11:35:52;4.00;1.00
11107;DHT22;5607;48.302;14.294;2023-02-15T11:38:45;4.20;1.00
11107;DHT22;5607;48.302;14.294;2023-02-15T11:41:37;4.40;1.00
11107;DHT22;5607;48.302;14.294;2023-02-15T11:44:30;4.60;1.00
11107;DHT22;5607;48.302;14.294;2023-02-15T11:47:20;4.50;1.00
11107;DHT22;5607;48.302;14.294;2023-02-15T11:50:11;4.60;1.00
11107;DHT22;5607;48.302;14.294;2023-02-15T11:53:18;4.70;1.00
11107;DHT22;5607;48.302;14.294;2023-02-15T11:56:15;4.70;1.00
11107;DHT22;5607;48.302;14.294;2023-02-15T11:59:06;4.60;1.00
11107;DHT22;5607;48.302;14.294;2023-02-15T12:01:59;4.70;1.00
11107;DHT22;5607;48.302;14.294;2023-02-15T12:04:59;4.70;1.00
11107;DHT22;5607;48.302;14.294;2023-02-15T12:08:24;4.50;1.00
11107;DHT22;5607;48.302;14.294;2023-02-15T12:11:12;4.20;1.00
11107;DHT22;5607;48.302;14.294;2023-02-15T12:14:08;4.10;1.00
11107;DHT22;5607;48.302;14.294;2023-02-15T12:16:57;3.90;1.00
11107;DHT22;5607;48.302;14.294;2023-02-15T12:19:44;3.60;1.00
11107;DHT22;5607;48.302;14.294;2023-02-15T12:22:36;3.80;1.00
11107;DHT22;5607;48.302;14.294;2023-02-15T12:25:29;3.90;1.00
11107;DHT22;5607;48.302;14.294;2023-02-15T12:28:38;4.00;1.00
11107;DHT22;5607;48.302;14.294;2023-02-15T12:31:36;4.30;1.00
11107;DHT22;5607;48.302;14.294;2023-02-15T12:34:46;4.60;1.00
11107;DHT22;5607;48.302;14.294;2023-02-15T12:37:33;4.40;1.00
11107;DHT22;5607;48.302;14.294;2023-02-15T12:40:22;4.50;1.00
11107;DHT22;5607;48.302;14.294;2023-02-15T12:43:24;4.70;1.00
11107;DHT22;5607;48.302;14.294;2023-02-15T12:46:23;4.70;1.00
11107;DHT22;5607;48.302;14.294;2023-02-15T12:52:22;4.90;1.00
11107;DHT22;5607;48.302;14.294;2023-02-15T12:55:18;4.80;1.00
11107;DHT22;5607;48.302;14.294;2023-02-15T13:01:10;4.90;1.00
11107;DHT22;5607;48.302;14.294;2023-02-15T13:04:06;4.80;1.00
11107;DHT22;5607;48.302;14.294;2023-02-15T13:07:13;4.90;1.00
11107;DHT22;5607;48.302;14.294;2023-02-15T13:10:00;5.00;1.00
11107;DHT22;5607;48.302;14.294;2023-02-15T13:12:47;4.80;1.00
11107;DHT22;5607;48.302;14.294;2023-02-15T13:15:35;4.70;1.00
11107;DHT22;5607;48.302;14.294;2023-02-15T13:18:32;4.70;1.00
11107;DHT22;5607;48.302;14.294;2023-02-15T13:21:23;4.60;1.00
11107;DHT22;5607;48.302;14.294;2023-02-15T13:24:23;4.30;1.00
11107;DHT22;5607;48.302;14.294;2023-02-15T13:27:18;4.30;1.00
11107;DHT22;5607;48.302;14.294;2023-02-15T13:33:33;4.30;1.00
11107;DHT22;5607;48.302;14.294;2023-02-15T13:42:40;4.50;1.00
11107;DHT22;5607;48.302;14.294;2023-02-15T13:46:25;4.50;1.00
11107;DHT22;5607;48.302;14.294;2023-02-15T14:14:55;4.80;1.00
11107;DHT22;5607;48.302;14.294;2023-02-15T14:17:55;4.60;1.00
11107;DHT22;5607;48.302;14.294;2023-02-15T14:20:56;4.60;1.00
11107;DHT22;5607;48.302;14.294;2023-02-15T14:30:03;4.50;1.00
11107;DHT22;5607;48.302;14.294;2023-02-15T14:33:00;4.40;1.00
11107;DHT22;5607;48.302;14.294;2023-02-15T14:35:53;4.50;1.00
11107;DHT22;5607;48.302;14.294;2023-02-15T14:44:38;4.70;1.00
11107;DHT22;5607;48.302;14.294;2023-02-15T14:47:33;4.70;1.00
11107;DHT22;5607;48.302;14.294;2023-02-15T14:56:31;4.80;1.00
11107;DHT22;5607;48.302;14.294;2023-02-15T14:59:21;4.80;1.00
11107;DHT22;5607;48.302;14.294;2023-02-15T15:04:56;4.70;1.00
11107;DHT22;5607;48.302;14.294;2023-02-15T15:08:04;4.70;1.00
11107;DHT22;5607;48.302;14.294;2023-02-15T15:10:51;4.70;1.00
11107;DHT22;5607;48.302;14.294;2023-02-15T15:13:38;4.70;1.00
11107;DHT22;5607;48.302;14.294;2023-02-15T15:22:32;4.80;1.00
11107;DHT22;5607;48.302;14.294;2023-02-15T15:28:52;4.60;1.00
11107;DHT22;5607;48.302;14.294;2023-02-15T15:31:51;4.60;1.00
11107;DHT22;5607;48.302;14.294;2023-02-15T15:41:01;4.50;1.00
11107;DHT22;5607;48.302;14.294;2023-02-15T15:50:19;4.50;1.00
11107;DHT22;5607;48.302;14.294;2023-02-15T15:53:06;4.50;1.00
11107;DHT22;5607;48.302;14.294;2023-02-15T15:56:12;4.40;1.00
11107;DHT22;5607;48.302;14.294;2023-02-15T15:59:05;4.40;1.00
11107;DHT22;5607;48.302;14.294;2023-02-15T16:02:04;4.40;1.00
11107;DHT22;5607;48.302;14.294;2023-02-15T16:04:52;4.40;1.00
11107;DHT22;5607;48.302;14.294;2023-02-15T16:07:39;4.30;1.00
11107;DHT22;5607;48.302;14.294;2023-02-15T16:10:28;4.30;1.00
11107;DHT22;5607;48.302;14.294;2023-02-15T16:13:18;4.30;1.00
11107;DHT22;5607;48.302;14.294;2023-02-15T16:16:05;4.30;1.00
11107;DHT22;5607;48.302;14.294;2023-02-15T16:18:52;4.20;1.00
11107;DHT22;5607;48.302;14.294;2023-02-15T16:21:40;4.10;1.00
11107;DHT22;5607;48.302;14.294;2023-02-15T16:27:33;4.10;1.00
11107;DHT22;5607;48.302;14.294;2023-02-15T16:30:24;4.10;1.00
11107;DHT22;5607;48.302;14.294;2023-02-15T16:33:12;4.10;1.00
11107;DHT22;5607;48.302;14.294;2023-02-15T16:36:04;4.10;1.00
11107;DHT22;5607;48.302;14.294;2023-02-15T16:41:43;4.10;1.00
11107;DHT22;5607;48.302;14.294;2023-02-15T16:44:32;4.10;1.00
11107;DHT22;5607;48.302;14.294;2023-02-15T16:47:26;4.10;1.00
11107;DHT22;5607;48.302;14.294;2023-02-15T16:50:19;4.10;1.00
11107;DHT22;5607;48.302;14.294;2023-02-15T16:53:13;4.10;1.00
11107;DHT22;5607;48.302;14.294;2023-02-15T16:56:05;4.10;1.00
11107;DHT22;5607;48.302;14.294;2023-02-15T16:58:52;4.00;1.00
11107;DHT22;5607;48.302;14.294;2023-02-15T17:01:40;3.90;1.00
11107;DHT22;5607;48.302;14.294;2023-02-15T17:04:31;3.80;1.00
11107;DHT22;5607;48.302;14.294;2023-02-15T17:07:19;3.90;1.00
11107;DHT22;5607;48.302;14.294;2023-02-15T17:10:26;3.90;1.00
11107;DHT22;5607;48.302;14.294;2023-02-15T17:13:23;4.00;1.00
11107;DHT22;5607;48.302;14.294;2023-02-15T17:16:26;4.00;1.00
11107;DHT22;5607;48.302;14.294;2023-02-15T17:19:15;4.00;1.00
11107;DHT22;5607;48.302;14.294;2023-02-15T17:22:16;4.00;1.00
11107;DHT22;5607;48.302;14.294;2023-02-15T17:25:06;4.00;1.00
11107;DHT22;5607;48.302;14.294;2023-02-15T17:28:19;4.00;1.00
11107;DHT22;5607;48.302;14.294;2023-02-15T17:31:09;4.00;1.00
11107;DHT22;5607;48.302;14.294;2023-02-15T17:33:55;4.10;1.00
11107;DHT22;5607;48.302;14.294;2023-02-15T17:36:57;4.00;1.00
11107;DHT22;5607;48.302;14.294;2023-02-15T17:39:45;4.10;1.00
11107;DHT22;5607;48.302;14.294;2023-02-15T17:42:31;4.20;1.00
11107;DHT22;5607;48.302;14.294;2023-02-15T17:45:18;4.10;1.00
11107;DHT22;5607;48.302;14.294;2023-02-15T17:48:06;4.10;1.00
11107;DHT22;5607;48.302;14.294;2023-02-15T17:51:04;3.90;1.00
11107;DHT22;5607;48.302;14.294;2023-02-15T17:53:52;4.00;1.00
11107;DHT22;5607;48.302;14.294;2023-02-15T17:56:57;4.00;1.00
11107;DHT22;5607;48.302;14.294;2023-02-15T17:59:50;4.00;1.00
11107;DHT22;5607;48.302;14.294;2023-02-15T18:02:55;3.90;1.00
11107;DHT22;5607;48.302;14.294;2023-02-15T18:06:01;3.80;1.00
11107;DHT22;5607;48.302;14.294;2023-02-15T18:09:14;3.80;1.00
11107;DHT22;5607;48.302;14.294;2023-02-15T18:12:25;3.80;1.00
11107;DHT22;5607;48.302;14.294;2023-02-15T18:15:13;3.90;1.00
11107;DHT22;5607;48.302;14.294;2023-02-15T18:18:00;3.80;1.00
11107;DHT22;5607;48.302;14.294;2023-02-15T18:20:47;3.90;1.00
11107;DHT22;5607;48.302;14.294;2023-02-15T18:23:34;3.80;1.00
11107;DHT22;5607;48.302;14.294;2023-02-15T18:26:22;3.80;1.00
11107;DHT22;5607;48.302;14.294;2023-02-15T18:29:10;3.90;1.00
11107;DHT22;5607;48.302;14.294;2023-02-15T18:31:57;3.90;1.00
11107;DHT22;5607;48.302;14.294;2023-02-15T18:34:45;3.90;1.00
11107;DHT22;5607;48.302;14.294;2023-02-15T18:37:34;3.80;1.00
11107;DHT22;5607;48.302;14.294;2023-02-15T18:40:21;3.80;1.00
11107;DHT22;5607;48.302;14.294;2023-02-15T18:43:11;3.70;1.00
11107;DHT22;5607;48.302;14.294;2023-02-15T18:45:58;3.60;1.00
11107;DHT22;5607;48.302;14.294;2023-02-15T18:48:45;3.70;1.00
11107;DHT22;5607;48.302;14.294;2023-02-15T18:51:31;3.70;1.00
11107;DHT22;5607;48.302;14.294;2023-02-15T18:54:24;3.60;1.00
11107;DHT22;5607;48.302;14.294;2023-02-15T18:57:12;3.60;1.00
11107;DHT22;5607;48.302;14.294;2023-02-15T18:59:59;3.60;1.00
11107;DHT22;5607;48.302;14.294;2023-02-15T19:02:46;3.60;1.00
11107;DHT22;5607;48.302;14.294;2023-02-15T19:05:33;3.60;1.00
11107;DHT22;5607;48.302;14.294;2023-02-15T19:08:21;3.60;1.00
11107;DHT22;5607;48.302;14.294;2023-02-15T19:11:14;3.60;1.00
11107;DHT22;5607;48.302;14.294;2023-02-15T19:14:04;3.40;1.00
11107;DHT22;5607;48.302;14.294;2023-02-15T19:17:00;3.30;1.00
11107;DHT22;5607;48.302;14.294;2023-02-15T19:19:47;3.30;5.90
11107;DHT22;5607;48.302;14.294;2023-02-15T19:22:34;3.50;5.10
11107;DHT22;5607;48.302;14.294;2023-02-15T19:25:22;3.60;1.00
11107;DHT22;5607;48.302;14.294;2023-02-15T19:28:16;3.60;1.00
11107;DHT22;5607;48.302;14.294;2023-02-15T19:31:04;3.60;1.00
11107;DHT22;5607;48.302;14.294;2023-02-15T19:33:51;3.60;1.00
11107;DHT22;5607;48.302;14.294;2023-02-15T19:36:38;3.50;1.00
11107;DHT22;5607;48.302;14.294;2023-02-15T19:39:26;3.40;1.00
11107;DHT22;5607;48.302;14.294;2023-02-15T19:42:15;3.50;3.00
11107;DHT22;5607;48.302;14.294;2023-02-15T19:45:13;3.60;1.00
11107;DHT22;5607;48.302;14.294;2023-02-15T19:48:00;3.60;1.00
11107;DHT22;5607;48.302;14.294;2023-02-15T19:50:47;3.50;1.00
11107;DHT22;5607;48.302;14.294;2023-02-15T19:53:34;3.40;1.00
11107;DHT22;5607;48.302;14.294;2023-02-15T19:56:21;3.30;1.00
11107;DHT22;5607;48.302;14.294;2023-02-15T19:59:25;3.30;2.30
11107;DHT22;5607;48.302;14.294;2023-02-15T20:02:14;3.30;1.00
11107;DHT22;5607;48.302;14.294;2023-02-15T20:05:03;3.30;3.20
11107;DHT22;5607;48.302;14.294;2023-02-15T20:07:51;3.20;1.60
11107;DHT22;5607;48.302;14.294;2023-02-15T20:10:38;3.30;5.20
11107;DHT22;5607;48.302;14.294;2023-02-15T20:13:25;3.30;4.50
11107;DHT22;5607;48.302;14.294;2023-02-15T20:16:13;3.40;1.00
11107;DHT22;5607;48.302;14.294;2023-02-15T20:19:00;3.40;1.00
11107;DHT22;5607;48.302;14.294;2023-02-15T20:21:47;3.20;1.00
11107;DHT22;5607;48.302;14.294;2023-02-15T20:24:39;3.10;1.60
11107;DHT22;5607;48.302;14.294;2023-02-15T20:27:26;3.00;15.50
11107;DHT22;5607;48.302;14.294;2023-02-15T20:30:13;3.00;10.50
11107;DHT22;5607;48.302;14.294;2023-02-15T20:33:02;3.00;18.10
11107;DHT22;5607;48.302;14.294;2023-02-15T20:35:49;3.10;15.70
11107;DHT22;5607;48.302;14.294;2023-02-15T20:38:36;3.10;13.30
11107;DHT22;5607;48.302;14.294;2023-02-15T20:41:23;3.00;9.20
11107;DHT22;5607;48.302;14.294;2023-02-15T20:44:25;2.90;18.70
11107;DHT22;5607;48.302;14.294;2023-02-15T20:47:14;2.80;55.40
11107;DHT22;5607;48.302;14.294;2023-02-15T20:50:00;2.90;33.90
11107;DHT22;5607;48.302;14.294;2023-02-15T20:52:47;2.60;48.50
11107;DHT22;5607;48.302;14.294;2023-02-15T20:55:35;2.50;82.30
11107;DHT22;5607;48.302;14.294;2023-02-15T20:58:23;2.40;99.90
11107;DHT22;5607;48.302;14.294;2023-02-15T21:01:12;2.60;99.90
11107;DHT22;5607;48.302;14.294;2023-02-15T21:03:59;2.80;81.20
11107;DHT22;5607;48.302;14.294;2023-02-15T21:06:45;2.90;67.20
11107;DHT22;5607;48.302;14.294;2023-02-15T21:09:32;2.80;37.30
11107;DHT22;5607;48.302;14.294;2023-02-15T21:12:19;2.80;52.90
11107;DHT22;5607;48.302;14.294;2023-02-15T21:15:24;2.90;53.50
11107;DHT22;5607;48.302;14.294;2023-02-15T21:18:22;2.90;48.60
11107;DHT22;5607;48.302;14.294;2023-02-15T21:21:13;3.00;33.30
11107;DHT22;5607;48.302;14.294;2023-02-15T21:24:05;3.00;28.10
11107;DHT22;5607;48.302;14.294;2023-02-15T21:26:56;2.90;16.90
11107;DHT22;5607;48.302;14.294;2023-02-15T21:29:45;2.70;27.70
11107;DHT22;5607;48.302;14.294;2023-02-15T21:32:32;2.50;55.90
11107;DHT22;5607;48.302;14.294;2023-02-15T21:35:20;2.30;97.00